Time;durP1;ratioP1;P1;durP2;ratioP2;P2;SDS_P1;SDS_P2;PMS_P1;PMS_P2;Temp;Humidity;BMP_temperature;BMP_pressure;BME280_temperature;BME280_humidity;BME280_pressure;Samples;Min_cycle;Max_cycle;Signal;HPM_P1;HPM_P2
2022/05/22 00:00:30;;;;;;;1.25;0.22;;;;;;;30.37;18.43;98039.50;5039765;28;20068;-79
2022/05/22 00:02:56;;;;;;;3.63;0.32;;;;;;;30.53;18.18;98044.78;5037843;28;20063;-79
2022/05/22 00:05:24;;;;;;;1.20;0.30;;;;;;;30.66;17.97;98036.88;5036687;28;20484;-79
2022/05/22 00:07:50;;;;;;;0.20;0.20;;;;;;;30.78;17.96;98035.84;5038981;28;20116;-79
2022/05/22 00:10:17;;;;;;;0.28;0.20;;;;;;;30.94;17.66;98034.69;5041695;28;20108;-79
2022/05/22 00:12:44;;;;;;;0.20;0.20;;;;;;;30.70;17.73;98028.97;5035938;28;20045;-78
2022/05/22 00:15:12;;;;;;;0.95;0.38;;;;;;;30.41;18.15;98025.94;5041005;28;20025;-79
2022/05/22 00:17:39;;;;;;;0.40;0.20;;;;;;;30.18;18.58;98031.53;5039619;28;20480;-79
2022/05/22 00:20:06;;;;;;;2.08;0.50;;;;;;;29.82;19.11;98033.19;5040845;28;20041;-79
2022/05/22 00:22:32;;;;;;;0.60;0.35;;;;;;;29.80;19.04;98034.94;5041294;28;20484;-79
2022/05/22 00:24:59;;;;;;;0.20;0.10;;;;;;;29.45;19.40;98025.19;5041774;28;20091;-79
2022/05/22 00:27:26;;;;;;;0.40;0.22;;;;;;;29.52;19.41;98020.00;5037724;28;20431;-78
2022/05/22 00:29:52;;;;;;;1.55;0.35;;;;;;;29.65;19.04;98022.63;5026135;28;20032;-79
2022/05/22 00:32:20;;;;;;;0.20;0.20;;;;;;;29.73;19.08;98024.69;5040238;28;20029;-79
2022/05/22 00:34:46;;;;;;;0.88;0.20;;;;;;;29.76;18.91;98025.78;5040117;28;20388;-79
2022/05/22 00:37:12;;;;;;;0.28;0.20;;;;;;;29.45;19.44;98023.16;5037019;28;20128;-78
2022/05/22 00:39:38;;;;;;;0.93;0.22;;;;;;;29.26;19.63;98025.19;5038785;28;20037;-79
2022/05/22 00:42:18;;;;;;;0.68;0.20;;;;;;;29.18;19.58;98023.13;5039493;28;20041;-79
2022/05/22 00:44:45;;;;;;;0.20;0.20;;;;;;;29.17;19.89;98018.72;5039055;28;20064;-79
2022/05/22 00:47:11;;;;;;;0.25;0.20;;;;;;;29.34;19.29;98019.97;5039229;28;20045;-79
2022/05/22 00:49:41;;;;;;;0.30;0.20;;;;;;;29.55;19.24;98023.91;5020696;28;20036;-78
2022/05/22 00:52:16;;;;;;;2.25;0.20;;;;;;;29.64;19.23;98021.84;5036757;28;20069;-78
2022/05/22 00:54:55;;;;;;;0.57;0.30;;;;;;;29.74;19.29;98022.63;5038042;28;20039;-78
2022/05/22 00:57:24;;;;;;;0.40;0.20;;;;;;;29.86;19.18;98021.69;5040043;28;20025;-78
2022/05/22 00:59:54;;;;;;;0.82;0.17;;;;;;;29.80;19.12;98026.44;5040642;28;20025;-79
2022/05/22 01:02:21;;;;;;;0.65;0.30;;;;;;;29.73;19.54;98030.34;5039259;28;20033;-78
2022/05/22 01:04:49;;;;;;;0.15;0.10;;;;;;;29.69;19.59;98024.03;5021767;28;21034;-78
2022/05/22 01:07:16;;;;;;;0.40;0.28;;;;;;;29.74;19.54;98020.59;5040740;28;20047;-79
2022/05/22 01:09:42;;;;;;;3.20;1.08;;;;;;;29.83;19.53;98016.97;5027222;28;20037;-78
2022/05/22 01:12:16;;;;;;;2.60;0.20;;;;;;;29.84;19.60;98021.38;5038694;28;20040;-79
2022/05/22 01:14:44;;;;;;;2.00;0.45;;;;;;;29.65;19.73;98014.16;5037833;28;20039;-79
2022/05/22 01:17:11;;;;;;;3.00;0.40;;;;;;;28.98;21.19;98012.25;5040253;28;20040;-78
2022/05/22 01:19:38;;;;;;;2.33;0.40;;;;;;;28.84;21.38;98020.53;5038919;28;20140;-79
2022/05/22 01:22:08;;;;;;;0.40;0.38;;;;;;;28.77;21.28;98024.47;5023764;28;20479;-78
2022/05/22 01:24:34;;;;;;;1.38;0.40;;;;;;;29.14;20.97;98028.13;5039253;28;20025;-78
2022/05/22 01:27:05;;;;;;;1.30;0.45;;;;;;;29.23;20.75;98022.50;5041446;28;20512;-79
2022/05/22 01:29:32;;;;;;;0.50;0.40;;;;;;;29.51;20.60;98021.25;5040196;28;20042;-79
2022/05/22 01:31:58;;;;;;;3.55;0.35;;;;;;;29.85;20.38;98020.91;5039018;28;20041;-79
2022/05/22 01:34:24;;;;;;;2.85;0.40;;;;;;;29.81;20.00;98016.66;5040065;28;20166;-79
2022/05/22 01:36:50;;;;;;;1.00;0.30;;;;;;;29.93;20.35;98013.66;5037150;28;20052;-78
2022/05/22 01:39:16;;;;;;;0.30;0.30;;;;;;;29.87;20.48;98017.63;5023912;28;20049;-79
2022/05/22 01:41:43;;;;;;;0.35;0.30;;;;;;;29.85;20.25;98017.31;5038911;28;20084;-78
2022/05/22 01:44:09;;;;;;;0.63;0.38;;;;;;;29.88;20.57;98014.31;5039572;28;20033;-78
2022/05/22 01:46:35;;;;;;;1.85;0.32;;;;;;;30.09;20.03;98004.81;5038201;28;20761;-79
2022/05/22 01:49:02;;;;;;;0.57;0.30;;;;;;;30.12;19.97;98010.78;5039706;28;20044;-79
2022/05/22 01:51:32;;;;;;;0.43;0.30;;;;;;;30.08;19.89;98006.06;5039258;28;20032;-79
2022/05/22 01:54:01;;;;;;;1.15;0.50;;;;;;;30.11;20.09;98009.22;5039558;28;20086;-79
2022/05/22 01:56:28;;;;;;;0.60;0.40;;;;;;;30.12;19.89;98011.56;5036544;28;20044;-79
2022/05/22 01:58:54;;;;;;;0.30;0.30;;;;;;;29.99;20.04;98002.50;5037642;28;20031;-79
2022/05/22 02:01:20;;;;;;;1.48;0.40;;;;;;;29.71;20.13;98000.94;5037942;28;20029;-79
2022/05/22 02:03:46;;;;;;;0.30;0.30;;;;;;;29.33;20.80;98007.91;5036343;28;20038;-78
2022/05/22 02:06:12;;;;;;;1.08;0.63;;;;;;;29.33;20.72;98010.72;5038932;28;20514;-79
2022/05/22 02:08:39;;;;;;;0.32;0.32;;;;;;;29.66;20.55;97999.53;5037462;28;20033;-79
2022/05/22 02:11:07;;;;;;;2.05;0.40;;;;;;;29.54;20.36;98000.50;5037748;28;20055;-79
2022/05/22 02:13:36;;;;;;;0.93;0.40;;;;;;;29.45;20.32;97994.06;5039469;28;20427;-78
2022/05/22 02:16:03;;;;;;;1.63;0.50;;;;;;;29.21;20.59;97991.88;5042283;28;20480;-79
2022/05/22 02:18:29;;;;;;;1.40;0.40;;;;;;;29.13;21.12;97990.56;5038410;28;20037;-79
2022/05/22 02:20:56;;;;;;;0.40;0.30;;;;;;;29.20;20.79;97995.94;5039431;28;20037;-78
2022/05/22 02:23:22;;;;;;;1.48;0.30;;;;;;;29.02;20.95;97987.44;5039001;28;20033;-79
2022/05/22 02:25:52;;;;;;;0.30;0.30;;;;;;;28.94;21.11;97985.38;5039539;28;20025;-78
2022/05/22 02:28:20;;;;;;;1.35;0.35;;;;;;;28.97;21.12;97985.22;5035165;28;20116;-78
2022/05/22 02:30:50;;;;;;;1.95;0.40;;;;;;;28.93;21.04;97990.25;5040584;28;20044;-78
2022/05/22 02:33:17;;;;;;;1.47;0.30;;;;;;;29.04;20.76;97979.25;5037916;28;20029;-79
2022/05/22 02:35:43;;;;;;;0.75;0.40;;;;;;;28.93;21.09;97978.94;5041337;28;20037;-79
2022/05/22 02:38:10;;;;;;;1.15;0.40;;;;;;;28.92;21.10;97976.56;5044051;28;20043;-79
2022/05/22 02:40:38;;;;;;;1.42;0.50;;;;;;;29.07;20.76;97980.38;5027498;28;20048;-78
2022/05/22 02:43:06;;;;;;;0.45;0.35;;;;;;;28.98;20.93;97983.19;5040505;28;20037;-78
2022/05/22 02:45:34;;;;;;;0.80;0.40;;;;;;;29.15;20.76;97984.47;5036725;28;20037;-79
2022/05/22 02:48:01;;;;;;;0.70;0.30;;;;;;;29.20;20.88;97989.50;5037238;28;20035;-78
2022/05/22 02:50:29;;;;;;;1.25;0.40;;;;;;;29.11;20.82;97986.63;5040924;28;20041;-79
2022/05/22 02:52:56;;;;;;;1.60;0.30;;;;;;;28.66;21.52;97982.50;5038909;28;24891;-79
2022/05/22 02:55:22;;;;;;;1.52;0.50;;;;;;;28.38;21.36;97991.34;5037042;28;20119;-79
2022/05/22 02:57:49;;;;;;;2.38;0.60;;;;;;;28.11;21.72;97991.22;5040010;28;20025;-79
2022/05/22 03:00:26;;;;;;;2.20;0.45;;;;;;;27.93;22.20;97987.06;5043034;28;20037;-78
2022/05/22 03:02:53;;;;;;;3.08;0.52;;;;;;;27.80;23.30;97994.81;5023930;28;20042;-79
2022/05/22 03:05:20;;;;;;;4.25;0.75;;;;;;;27.47;23.55;97990.06;5040357;28;20119;-79
2022/05/22 03:07:46;;;;;;;1.92;0.50;;;;;;;27.69;23.30;97985.19;5022076;28;20033;-78
2022/05/22 03:10:14;;;;;;;0.80;0.60;;;;;;;27.78;22.78;97985.22;5040199;28;20531;-78
2022/05/22 03:12:40;;;;;;;2.78;0.82;;;;;;;27.68;23.33;97981.56;5035723;28;20401;-78
2022/05/22 03:15:09;;;;;;;2.80;0.60;;;;;;;27.63;23.79;97985.00;5034828;28;20060;-79
2022/05/22 03:17:35;;;;;;;4.75;0.80;;;;;;;27.69;23.07;97982.34;5042691;28;20025;-79
2022/05/22 03:20:01;;;;;;;2.53;0.65;;;;;;;27.95;22.98;97981.72;5036119;28;20037;-78
2022/05/22 03:22:28;;;;;;;2.47;0.55;;;;;;;27.96;23.23;97977.66;5037026;28;20064;-79
2022/05/22 03:24:54;;;;;;;2.05;0.70;;;;;;;28.27;22.57;97977.66;5037542;28;20056;-79
2022/05/22 03:27:21;;;;;;;2.28;0.55;;;;;;;28.35;22.71;97973.31;5038362;28;20036;-79
2022/05/22 03:29:48;;;;;;;1.45;0.50;;;;;;;28.24;22.86;97966.53;5036200;28;20033;-78
2022/05/22 03:32:15;;;;;;;1.58;0.50;;;;;;;28.37;22.60;97970.00;5038993;28;20057;-78
2022/05/22 03:34:42;;;;;;;0.60;0.40;;;;;;;28.40;22.42;97963.44;5038960;28;20128;-79
2022/05/22 03:37:08;;;;;;;1.63;0.50;;;;;;;28.65;22.51;97957.56;5039333;28;20041;-79
2022/05/22 03:39:34;;;;;;;0.43;0.40;;;;;;;29.20;21.98;97967.66;5037095;28;20121;-79
2022/05/22 03:42:00;;;;;;;2.47;0.50;;;;;;;29.74;21.62;97961.16;5036023;28;20037;-78
2022/05/22 03:44:27;;;;;;;0.68;0.60;;;;;;;29.79;21.45;97956.91;5023515;28;20033;-79
2022/05/22 03:46:53;;;;;;;1.98;0.70;;;;;;;30.11;20.84;97958.25;5038647;28;20094;-79
2022/05/22 03:49:19;;;;;;;1.52;0.60;;;;;;;30.38;20.89;97958.13;5035850;28;20033;-79
2022/05/22 03:51:45;;;;;;;1.50;0.65;;;;;;;30.66;20.77;97953.88;5040624;28;20079;-79
2022/05/22 03:54:12;;;;;;;2.10;0.65;;;;;;;31.04;20.64;97953.16;5038432;28;20033;-79
2022/05/22 03:56:40;;;;;;;0.98;0.63;;;;;;;31.32;19.97;97954.50;5036187;28;20564;-79
2022/05/22 03:59:06;;;;;;;3.55;0.50;;;;;;;31.23;20.01;97952.50;5038672;28;20491;-79
2022/05/22 04:01:32;;;;;;;0.65;0.40;;;;;;;31.21;20.08;97959.94;5037874;28;20029;-79
2022/05/22 04:03:58;;;;;;;0.85;0.60;;;;;;;30.91;20.36;97970.44;5038751;28;20060;-79
2022/05/22 04:06:24;;;;;;;0.75;0.55;;;;;;;30.92;19.99;97968.38;5041290;28;20029;-78
2022/05/22 04:08:50;;;;;;;2.83;0.60;;;;;;;30.53;20.66;97964.66;5030277;28;20037;-79
2022/05/22 04:11:19;;;;;;;1.65;0.88;;;;;;;30.46;20.61;97971.47;5038093;28;20033;-78
2022/05/22 04:13:46;;;;;;;1.83;0.50;;;;;;;30.81;20.57;97963.22;5040352;28;20044;-78
2022/05/22 04:16:13;;;;;;;0.80;0.50;;;;;;;31.04;19.98;97964.50;5042948;28;20033;-79
2022/05/22 04:18:39;;;;;;;2.33;0.80;;;;;;;30.76;20.24;97958.19;5039296;28;20033;-79
2022/05/22 04:21:05;;;;;;;3.35;0.85;;;;;;;30.63;20.58;97966.97;5042634;28;20055;-79
2022/05/22 04:26:17;;;;;;;0.73;0.60;;;;;;;31.16;20.50;97969.13;5035889;28;20044;-79
2022/05/22 04:28:43;;;;;;;2.05;0.50;;;;;;;31.09;20.24;97969.50;5036598;28;20044;-79
2022/05/22 04:31:09;;;;;;;1.08;0.55;;;;;;;30.73;20.44;97954.31;5039376;28;20028;-78
2022/05/22 04:33:35;;;;;;;1.83;1.20;;;;;;;30.29;20.84;97972.31;5037783;28;20032;-78
2022/05/22 04:36:02;;;;;;;1.75;1.13;;;;;;;30.21;21.21;97971.88;5046067;28;20037;-79
2022/05/22 04:38:28;;;;;;;4.30;0.95;;;;;;;30.01;21.42;97977.31;5042209;28;20108;-79
2022/05/22 04:40:59;;;;;;;1.50;0.80;;;;;;;29.49;22.02;97981.31;5026289;28;20033;-78
2022/05/22 04:43:27;;;;;;;2.05;1.00;;;;;;;29.05;22.74;97978.03;5037326;28;20033;-79
2022/05/22 04:45:54;;;;;;;4.40;1.50;;;;;;;28.29;23.18;97968.72;5041369;28;20149;-79
2022/05/22 04:48:21;;;;;;;2.63;1.73;;;;;;;27.92;23.81;97967.75;5043865;28;20044;-79
2022/05/22 04:50:49;;;;;;;4.88;1.48;;;;;;;27.21;24.69;97978.09;5044619;28;20029;-78
2022/05/22 04:53:18;;;;;;;2.92;1.00;;;;;;;27.38;24.41;97971.03;5040564;28;20033;-78
2022/05/22 04:55:44;;;;;;;1.65;1.20;;;;;;;28.02;24.31;97978.66;5041409;28;20095;-79
2022/05/22 04:58:11;;;;;;;4.10;1.33;;;;;;;28.12;23.94;97982.31;5023804;28;20043;-79
2022/05/22 05:00:37;;;;;;;2.65;1.60;;;;;;;27.79;24.19;97975.53;5045156;28;20040;-79
2022/05/22 05:03:04;;;;;;;1.40;0.85;;;;;;;28.23;24.39;97979.06;5043695;28;20033;-79
2022/05/22 05:05:30;;;;;;;2.97;1.33;;;;;;;29.24;22.75;97979.59;5046988;28;20068;-79
2022/05/22 05:07:57;;;;;;;3.58;2.30;;;;;;;29.16;22.71;97983.19;5043721;28;20045;-79
2022/05/22 05:10:24;;;;;;;1.92;1.35;;;;;;;28.67;23.69;97975.63;5047634;28;20049;-78
2022/05/22 05:12:50;;;;;;;3.03;1.35;;;;;;;28.25;23.65;97974.50;5043706;28;20037;-79
2022/05/22 05:15:19;;;;;;;1.73;1.23;;;;;;;27.11;24.62;97976.44;5044923;28;20025;-79
2022/05/22 05:17:46;;;;;;;2.15;1.50;;;;;;;27.48;24.30;97969.84;5046551;28;20033;-78
2022/05/22 05:20:16;;;;;;;4.43;1.73;;;;;;;27.69;24.59;97980.34;5045980;28;20090;-79
2022/05/22 05:22:43;;;;;;;4.65;1.42;;;;;;;27.76;24.58;97977.25;5043042;28;20500;-78
2022/05/22 05:25:11;;;;;;;4.75;1.27;;;;;;;27.89;24.48;97969.47;5044233;28;20029;-78
2022/05/22 05:27:37;;;;;;;3.78;1.85;;;;;;;27.97;24.05;97970.75;5040335;28;20041;-78
2022/05/22 05:30:04;;;;;;;3.33;1.50;;;;;;;27.73;23.78;97964.03;5041900;28;20443;-78
2022/05/22 05:32:30;;;;;;;3.00;1.38;;;;;;;27.96;24.17;97980.47;5043118;28;20033;-78
2022/05/22 05:34:58;;;;;;;3.78;1.30;;;;;;;28.84;23.66;97970.47;5044032;28;20033;-78
2022/05/22 05:37:24;;;;;;;1.88;1.08;;;;;;;28.71;23.48;97981.88;5043800;28;20025;-78
2022/05/22 05:39:50;;;;;;;4.03;1.65;;;;;;;28.56;23.96;97985.75;5043325;28;20037;-79
2022/05/22 05:42:17;;;;;;;2.00;1.20;;;;;;;28.92;23.27;97977.34;5049471;28;20385;-78
2022/05/22 05:44:43;;;;;;;1.95;1.20;;;;;;;28.44;23.68;97984.63;5027496;28;20422;-78
2022/05/22 05:47:10;;;;;;;7.22;1.42;;;;;;;28.02;24.53;97984.31;5041106;28;20045;-78
2022/05/22 05:49:40;;;;;;;1.85;1.67;;;;;;;28.65;23.96;97980.94;5039049;28;20481;-78
2022/05/22 05:52:07;;;;;;;1.35;1.05;;;;;;;29.06;22.91;97976.75;5047739;28;20029;-78
2022/05/22 05:54:33;;;;;;;3.33;1.40;;;;;;;28.67;23.50;97981.25;5010174;28;20029;-78
2022/05/22 05:57:00;;;;;;;1.48;1.08;;;;;;;28.93;23.44;97978.16;5044277;28;20040;-79
2022/05/22 05:59:27;;;;;;;2.50;1.33;;;;;;;29.49;22.27;97966.38;5040493;28;20028;-79
2022/05/22 06:01:53;;;;;;;6.05;1.20;;;;;;;28.78;23.05;97969.50;5041049;28;20491;-78
2022/05/22 06:04:20;;;;;;;2.00;0.80;;;;;;;28.29;23.75;97980.00;5041409;28;20387;-78
2022/05/22 06:06:47;;;;;;;5.03;1.25;;;;;;;28.01;23.54;97973.47;5042614;28;20063;-78
2022/05/22 06:09:13;;;;;;;2.65;1.00;;;;;;;28.94;22.75;97972.03;5047980;28;20414;-78
2022/05/22 06:11:39;;;;;;;3.83;0.90;;;;;;;29.54;21.89;97972.19;5047223;28;20532;-78
2022/05/22 06:14:05;;;;;;;3.08;0.80;;;;;;;30.37;22.01;97960.19;5046860;28;20025;-79
2022/05/22 06:16:31;;;;;;;2.83;1.00;;;;;;;31.09;21.11;97964.59;5048775;28;20116;-79
2022/05/22 06:18:57;;;;;;;2.13;0.63;;;;;;;31.12;20.65;97971.38;5045216;28;20437;-79
2022/05/22 06:21:26;;;;;;;2.22;0.85;;;;;;;29.94;21.50;97972.75;5038200;28;20084;-78
2022/05/22 06:23:52;;;;;;;3.88;1.10;;;;;;;29.34;21.82;97969.84;5042238;28;20041;-79
2022/05/22 06:26:19;;;;;;;2.95;1.45;;;;;;;28.88;22.13;97973.91;5041087;28;20021;-78
2022/05/22 06:28:46;;;;;;;3.05;0.80;;;;;;;29.39;21.87;97971.28;5045405;28;20107;-79
2022/05/22 06:31:13;;;;;;;3.20;0.90;;;;;;;28.75;22.38;97973.28;5044002;28;20033;-76
2022/05/22 06:33:40;;;;;;;3.63;1.40;;;;;;;29.50;22.02;97973.63;5045889;28;20029;-77
2022/05/22 06:36:09;;;;;;;3.03;0.60;;;;;;;29.72;22.07;97975.00;5054465;28;20412;-78
2022/05/22 06:41:20;;;;;;;2.55;0.80;;;;;;;29.68;21.55;97968.72;5041227;28;20044;-78
2022/05/22 06:43:49;;;;;;;2.35;0.80;;;;;;;29.82;21.77;97964.47;5046471;28;20511;-79
2022/05/22 06:46:16;;;;;;;4.10;1.17;;;;;;;29.72;20.73;97960.84;5047329;28;20041;-78
2022/05/22 06:48:43;;;;;;;4.85;0.82;;;;;;;29.55;20.90;97965.28;5047640;28;20055;-78
2022/05/22 06:51:09;;;;;;;1.67;0.73;;;;;;;29.76;20.72;97950.16;5052161;28;20033;-79
2022/05/22 06:53:35;;;;;;;1.52;0.60;;;;;;;29.71;20.75;97964.16;5050090;28;20075;-80
2022/05/22 06:56:02;;;;;;;2.05;0.70;;;;;;;29.79;20.53;97949.22;5053301;28;20095;-80
2022/05/22 06:58:28;;;;;;;2.25;0.65;;;;;;;29.78;21.01;97963.84;5052632;28;20081;-83
2022/05/22 07:00:54;;;;;;;1.92;0.68;;;;;;;30.01;20.58;97954.66;5051021;28;20029;-83
2022/05/22 07:03:22;;;;;;;1.42;0.57;;;;;;;30.18;20.58;97941.66;5047436;28;20050;-80
2022/05/22 07:05:48;;;;;;;1.98;0.68;;;;;;;29.97;21.16;97946.31;5012212;28;20075;-79
2022/05/22 07:08:14;;;;;;;1.73;0.60;;;;;;;29.78;20.99;97947.63;5042525;28;20507;-79
2022/05/22 07:13:25;;;;;;;0.85;0.47;;;;;;;29.13;21.08;97955.84;5047031;28;20091;-79
2022/05/22 07:16:03;;;;;;;2.45;1.05;;;;;;;29.69;21.04;97950.47;5051881;28;20479;-79
2022/05/22 07:18:29;;;;;;;1.88;0.75;;;;;;;29.89;20.20;97930.94;5048158;28;20091;-78
2022/05/22 07:20:56;;;;;;;3.17;0.77;;;;;;;28.12;22.07;97942.78;5042659;28;20039;-79
2022/05/22 07:23:22;;;;;;;4.82;0.70;;;;;;;28.90;21.82;97940.31;5044542;28;20052;-79
2022/05/22 07:25:48;;;;;;;2.63;0.65;;;;;;;28.03;22.47;97939.91;5045387;28;20086;-79
2022/05/22 07:28:15;;;;;;;4.57;0.77;;;;;;;29.05;21.24;97944.09;5046805;28;20040;-79
2022/05/22 07:30:41;;;;;;;1.83;0.60;;;;;;;29.51;21.25;97949.72;5045821;28;20056;-79
2022/05/22 07:33:07;;;;;;;1.98;0.77;;;;;;;27.36;22.61;97937.63;5046621;28;20067;-79
2022/05/22 07:35:33;;;;;;;1.90;0.40;;;;;;;27.99;22.12;97947.75;5043506;28;20489;-79
2022/05/22 07:37:59;;;;;;;1.10;0.60;;;;;;;29.00;21.96;97949.56;5047453;28;20045;-80
2022/05/22 07:40:26;;;;;;;2.42;0.70;;;;;;;28.98;21.68;97946.44;5048516;28;20369;-79
2022/05/22 07:42:52;;;;;;;4.00;0.75;;;;;;;29.62;20.29;97942.31;5044506;28;20098;-79
2022/05/22 07:45:18;;;;;;;2.00;0.70;;;;;;;29.39;20.74;97946.59;5041436;28;20040;-79
2022/05/22 07:47:44;;;;;;;3.08;0.77;;;;;;;29.53;20.40;97941.53;5042131;28;20057;-79
2022/05/22 07:50:16;;;;;;;5.10;0.70;;;;;;;29.63;20.21;97938.22;5041602;28;20108;-79
2022/05/22 07:52:46;;;;;;;1.85;0.60;;;;;;;28.73;20.73;97948.28;5039766;28;20033;-79
2022/05/22 07:55:18;;;;;;;1.92;0.65;;;;;;;28.57;21.47;97939.28;5040293;28;20044;-79
2022/05/22 07:57:46;;;;;;;2.35;0.60;;;;;;;28.77;21.14;97936.06;5040324;28;20044;-79
2022/05/22 08:00:16;;;;;;;2.33;0.68;;;;;;;29.32;20.66;97946.13;5039849;28;20037;-79
2022/05/22 08:02:42;;;;;;;6.13;0.85;;;;;;;28.80;21.08;97944.38;5039635;28;20140;-81
2022/05/22 08:05:09;;;;;;;1.67;0.80;;;;;;;28.82;20.55;97932.63;5039140;28;20110;-81
2022/05/22 08:07:36;;;;;;;1.88;0.45;;;;;;;28.68;21.02;97946.09;5038789;28;20505;-79
2022/05/22 08:10:05;;;;;;;1.48;0.50;;;;;;;29.29;21.02;97935.78;5044906;28;20441;-79
2022/05/22 08:12:37;;;;;;;1.98;0.63;;;;;;;29.50;20.77;97940.44;5047899;28;20162;-79
2022/05/22 08:15:03;;;;;;;1.42;0.60;;;;;;;29.22;19.85;97939.69;5028487;28;20029;-80
2022/05/22 08:17:35;;;;;;;1.50;0.40;;;;;;;28.81;20.15;97929.00;5040460;28;20504;-78
2022/05/22 08:20:03;;;;;;;1.88;0.93;;;;;;;28.90;20.24;97942.34;5030518;28;20389;-79
2022/05/22 08:22:30;;;;;;;0.47;0.30;;;;;;;28.52;20.84;97931.47;5040871;28;20030;-81
2022/05/22 08:24:56;;;;;;;0.50;0.30;;;;;;;29.44;19.83;97933.88;5049886;28;20029;-80
2022/05/22 08:27:22;;;;;;;0.45;0.35;;;;;;;29.23;20.03;97927.13;5041420;28;20036;-79
2022/05/22 08:29:48;;;;;;;1.98;0.50;;;;;;;28.51;20.64;97929.88;5043857;28;20033;-79
2022/05/22 08:32:14;;;;;;;1.70;0.60;;;;;;;28.27;21.06;97932.47;5050146;28;20506;-79
2022/05/22 08:34:40;;;;;;;1.60;0.40;;;;;;;27.94;21.45;97934.19;5046094;28;20038;-79
2022/05/22 08:37:06;;;;;;;1.48;0.50;;;;;;;27.66;21.47;97927.66;5049222;28;20040;-78
2022/05/22 08:39:33;;;;;;;1.63;0.50;;;;;;;27.82;20.86;97918.94;5045163;28;20033;-78
2022/05/22 08:42:05;;;;;;;2.20;0.50;;;;;;;26.45;22.83;97932.44;5041405;28;20035;-79
2022/05/22 08:44:34;;;;;;;1.02;0.47;;;;;;;28.02;21.33;97924.25;5040945;28;20484;-80
2022/05/22 08:47:36;;;;;;;1.33;0.50;;;;;;;29.17;20.80;97926.16;5045285;28;20037;-80
2022/05/22 08:50:06;;;;;;;1.83;0.60;;;;;;;29.37;19.52;97934.97;4947569;28;20039;-80
2022/05/22 08:52:45;;;;;;;4.40;0.60;;;;;;;29.00;20.56;97915.66;5028459;28;20511;-79
2022/05/22 08:55:25;;;;;;;2.15;0.70;;;;;;;29.61;19.02;97909.63;5032208;28;20028;-80
2022/05/22 09:01:04;;;;;;;1.10;0.40;;;;;;;28.83;19.04;97925.69;5043664;28;20059;-79
2022/05/22 09:03:39;;;;;;;1.97;0.50;;;;;;;27.86;20.68;97922.44;5043031;28;20017;-79
2022/05/22 09:06:06;;;;;;;1.08;0.32;;;;;;;27.54;20.86;97922.88;5045410;28;20028;-79
2022/05/22 09:08:42;;;;;;;2.15;0.68;;;;;;;29.41;18.55;97915.00;5049957;28;20071;-78
2022/05/22 09:11:31;;;;;;;2.50;0.50;;;;;;;28.88;18.86;97916.59;5042846;28;20037;-79
2022/05/22 09:14:09;;;;;;;3.60;0.32;;;;;;;30.10;17.78;97909.31;5040464;28;20037;-81
2022/05/22 09:17:03;;;;;;;1.30;0.40;;;;;;;30.15;17.33;97907.88;5037957;28;20083;-79
2022/05/22 09:19:38;;;;;;;4.20;0.60;;;;;;;28.59;18.00;97894.47;5044167;28;20048;-79
2022/05/22 09:22:04;;;;;;;0.95;0.40;;;;;;;28.50;18.18;97906.47;5047043;28;20079;-80
2022/05/22 09:24:56;;;;;;;1.38;0.40;;;;;;;29.14;18.06;97907.31;5028072;28;20499;-80
2022/05/22 09:27:35;;;;;;;3.40;0.47;;;;;;;30.25;17.51;97912.19;5049836;28;20036;-81
2022/05/22 09:30:09;;;;;;;1.42;0.38;;;;;;;29.76;18.45;97915.41;5051706;28;20064;-81
2022/05/22 09:33:05;;;;;;;0.82;0.40;;;;;;;29.65;17.98;97898.13;5039635;28;20037;-81
2022/05/22 09:35:45;;;;;;;1.30;0.40;;;;;;;29.72;17.96;97901.41;5041284;28;20033;-81
2022/05/22 09:38:28;;;;;;;0.50;0.30;;;;;;;30.31;18.00;97898.97;5046053;28;20037;-81
2022/05/22 09:41:38;;;;;;;3.78;0.35;;;;;;;30.16;18.14;97898.88;5039944;28;20071;-79
2022/05/22 09:44:29;;;;;;;0.73;0.30;;;;;;;28.67;19.09;97910.63;5043471;28;20473;-77
2022/05/22 09:47:11;;;;;;;1.45;0.40;;;;;;;28.78;18.42;97910.16;5046776;28;20061;-79
2022/05/22 09:49:55;;;;;;;4.90;0.50;;;;;;;29.11;18.55;97896.16;5043977;28;20026;-76
2022/05/22 09:52:49;;;;;;;1.65;0.30;;;;;;;30.11;18.19;97885.38;5044781;28;20026;-76
2022/05/22 09:55:45;;;;;;;0.50;0.20;;;;;;;31.50;16.58;97871.25;5047380;28;20443;-76
2022/05/22 09:58:45;;;;;;;1.95;0.40;;;;;;;30.69;17.33;97874.31;5044347;28;20033;-77
2022/05/22 10:01:23;;;;;;;1.83;0.60;;;;;;;30.46;17.15;97866.63;5038119;28;20033;-77
2022/05/22 10:04:01;;;;;;;1.98;0.73;;;;;;;30.03;18.33;97884.16;5024435;28;20053;-76
2022/05/22 10:06:57;;;;;;;0.47;0.30;;;;;;;29.85;18.41;97870.88;5049898;28;20029;-76
2022/05/22 10:09:38;;;;;;;1.67;1.00;;;;;;;30.02;17.89;97872.06;5042562;28;20069;-76
2022/05/22 10:12:10;;;;;;;2.13;0.30;;;;;;;30.47;17.90;97865.38;5041386;28;20033;-78
2022/05/22 10:14:36;;;;;;;0.85;0.30;;;;;;;29.56;18.49;97872.69;5047960;28;20196;-78
2022/05/22 10:17:33;;;;;;;1.25;0.35;;;;;;;30.20;18.42;97865.50;5032729;28;20041;-78
2022/05/22 10:20:11;;;;;;;1.15;0.20;;;;;;;31.26;17.75;97866.44;5045210;28;20094;-78
2022/05/22 10:23:22;;;;;;;1.60;0.50;;;;;;;30.86;17.41;97866.16;5047968;28;20037;-78
2022/05/22 10:26:20;;;;;;;1.38;0.30;;;;;;;31.09;16.52;97865.34;4962128;28;20118;-76
2022/05/22 10:28:54;;;;;;;2.65;0.28;;;;;;;31.43;16.90;97849.75;4957641;28;20055;-77
2022/05/22 10:31:29;;;;;;;2.90;0.60;;;;;;;30.52;16.80;97852.56;5027932;28;20087;-76
2022/05/22 10:34:20;;;;;;;2.30;0.50;;;;;;;30.45;17.16;97852.94;5041767;28;20035;-75
2022/05/22 10:36:52;;;;;;;0.90;0.30;;;;;;;30.00;17.85;97868.13;5042595;28;20099;-76
2022/05/22 10:39:19;;;;;;;1.75;0.32;;;;;;;30.27;17.52;97862.31;5041092;28;20488;-76
2022/05/22 10:44:43;;;;;;;1.27;0.40;;;;;;;29.48;18.10;97869.41;5044577;28;20161;-76
2022/05/22 10:47:09;;;;;;;1.40;0.40;;;;;;;28.81;19.46;97886.59;5045414;28;20037;-76
2022/05/22 10:49:44;;;;;;;1.45;0.50;;;;;;;29.72;19.16;97897.78;5044375;28;20050;-77
2022/05/22 10:52:22;;;;;;;2.78;0.52;;;;;;;29.90;18.86;97894.91;5042083;28;20511;-77
2022/05/22 10:54:53;;;;;;;2.53;0.40;;;;;;;30.39;18.42;97895.31;5043753;28;20118;-78
2022/05/22 10:57:23;;;;;;;;;;;;;;;30.35;18.64;97888.25;5042206;28;20357;-79
2022/05/22 10:59:50;;;;;;;1.45;0.20;;;;;;;30.39;19.20;97895.31;5041805;28;20387;-78
2022/05/22 11:02:25;;;;;;;2.45;0.47;;;;;;;31.24;18.70;97883.16;5042742;28;20476;-79
2022/05/22 11:04:54;;;;;;;0.82;0.20;;;;;;;31.53;18.36;97879.56;5044398;28;20029;-80
2022/05/22 11:07:45;;;;;;;3.10;0.40;;;;;;;31.02;18.14;97884.78;5041839;28;20032;-81
2022/05/22 11:10:17;;;;;;;0.98;0.38;;;;;;;29.88;19.03;97886.13;5047558;28;20488;-80
2022/05/22 11:12:43;;;;;;;2.15;0.60;;;;;;;30.11;18.21;97878.94;5040259;28;20029;-81
2022/05/22 11:15:16;;;;;;;0.50;0.30;;;;;;;30.24;18.55;97885.16;5041338;28;20036;-81
2022/05/22 11:17:42;;;;;;;3.28;0.60;;;;;;;29.33;19.45;97894.75;5026721;28;20086;-81
2022/05/22 11:20:24;;;;;;;3.33;0.43;;;;;;;27.99;21.02;97880.78;5041722;28;20033;-80
2022/05/22 11:23:00;;;;;;;2.08;0.40;;;;;;;29.06;19.90;97891.13;5042465;28;20059;-78
2022/05/22 11:25:58;;;;;;;1.98;0.60;;;;;;;29.60;19.26;97881.78;5040169;28;20025;-79
2022/05/22 11:28:29;;;;;;;2.33;0.65;;;;;;;30.63;18.74;97883.97;5041128;28;20115;-78
2022/05/22 11:31:26;;;;;;;1.25;0.38;;;;;;;31.32;18.23;97878.66;5046131;28;20033;-79
2022/05/22 11:34:33;;;;;;;1.83;0.32;;;;;;;31.18;18.35;97885.09;5044233;28;20259;-78
2022/05/22 11:37:20;;;;;;;2.78;0.55;;;;;;;30.96;17.90;97866.88;5045476;28;20040;-80
2022/05/22 11:40:13;;;;;;;0.82;0.28;;;;;;;30.25;18.56;97892.38;5042020;28;20033;-78
2022/05/22 11:42:40;;;;;;;1.90;0.38;;;;;;;28.81;19.69;97885.81;5040278;28;20030;-78
2022/05/22 11:45:21;;;;;;;0.70;0.32;;;;;;;29.70;19.46;97889.78;5044315;28;20037;-76
2022/05/22 11:48:31;;;;;;;2.22;0.45;;;;;;;30.87;18.59;97887.56;5041104;28;20511;-76
2022/05/22 11:51:19;;;;;;;1.20;0.30;;;;;;;30.96;18.08;97886.72;5042210;28;20048;-76
2022/05/22 11:54:09;;;;;;;4.60;0.32;;;;;;;31.60;17.74;97884.84;5042540;28;20040;-77
2022/05/22 11:56:54;;;;;;;2.60;0.40;;;;;;;32.43;17.53;97876.84;5042825;28;20040;-77
2022/05/22 11:59:27;;;;;;;1.00;0.38;;;;;;;33.30;16.52;97870.69;5042367;28;20395;-77
2022/05/22 12:01:59;;;;;;;1.88;0.40;;;;;;;32.44;16.59;97881.28;5041981;28;20111;-77
2022/05/22 12:04:35;;;;;;;2.15;0.40;;;;;;;31.73;16.92;97879.66;5043025;28;20112;-75